Terminal Aerodrome Forecast
Issued by NWS Twin Cities, MN

Home | Current Version | Previous Version | Graphics & Text | Print | Product List | Glossary On
Versions: 1 2 3 4 5 6 7 8 9 10 11 12 13 14 15 16 17 18 19 20 21 22 23 24 25
000
FTUS43 KMPX 270017 AAA
TAFMSP
TAF AMD
KMSP 270017Z 2700/2806 02005KT P6SM OVC014
      TEMPO 2700/2703 P6SM -DZ OVC012
     FM270900 35004KT P6SM OVC008
     FM271400 02005KT P6SM OVC015
     FM271700 03007KT P6SM BKN020 OVC040
     FM272100 04006KT P6SM SCT025 BKN040
     FM280000 02006KT P6SM BKN250=

USA.gov is the U.S. government's official web portal to all federal, state and local government web resources and services.